createdAt,value
2023-03-26T00:00:26.795Z,61.01
2023-03-26T00:06:00.970Z,66.65
2023-03-26T00:11:06.569Z,63.38
2023-03-26T00:16:12.394Z,61.21
2023-03-26T00:21:17.740Z,60.62
2023-03-26T00:26:20.943Z,59.60
2023-03-26T00:31:24.259Z,62.43
2023-03-26T00:36:27.405Z,64.19
2023-03-26T00:41:31.357Z,61.61
2023-03-26T00:46:34.438Z,60.61
2023-03-26T00:51:39.471Z,59.88
2023-03-26T00:56:42.607Z,58.00
2023-03-26T01:01:45.723Z,61.33
2023-03-26T01:06:48.995Z,67.46
2023-03-26T01:11:52.344Z,64.08
2023-03-26T01:16:56.551Z,62.00
2023-03-26T01:22:00.877Z,60.55
2023-03-26T01:27:26.727Z,60.25
2023-03-26T01:32:38.400Z,61.68
2023-03-26T01:37:46.976Z,64.08
2023-03-26T01:43:12.886Z,61.73
2023-03-26T01:48:16.032Z,60.84
2023-03-26T01:53:19.133Z,59.28
2023-03-26T01:58:32.788Z,63.32
2023-03-26T02:03:45.094Z,67.05
2023-03-26T02:08:55.696Z,63.51
2023-03-26T02:13:59.314Z,61.98
2023-03-26T02:19:02.431Z,61.06
2023-03-26T02:24:05.534Z,60.87
2023-03-26T02:29:08.851Z,60.10
2023-03-26T02:34:12.276Z,59.36
2023-03-26T02:39:15.455Z,64.15
2023-03-26T02:44:18.381Z,64.69
2023-03-26T02:49:21.588Z,62.50
2023-03-26T02:54:24.496Z,62.22
2023-03-26T02:59:27.704Z,62.13
2023-03-26T03:04:30.609Z,62.57
2023-03-26T03:09:33.512Z,63.16
2023-03-26T03:14:36.724Z,62.58
2023-03-26T03:19:40.142Z,63.91
2023-03-26T03:24:43.998Z,63.68
2023-03-26T03:29:47.099Z,64.23
2023-03-26T03:34:51.784Z,63.14
2023-03-26T03:39:54.735Z,63.50
2023-03-26T03:44:57.635Z,63.45
2023-03-26T03:50:00.746Z,64.71
2023-03-26T03:55:04.390Z,64.02
2023-03-26T04:00:11.890Z,63.34
2023-03-26T04:05:14.779Z,63.28
2023-03-26T04:10:17.794Z,64.11
2023-03-26T04:15:21.330Z,65.17
2023-03-26T04:20:24.525Z,64.99
2023-03-26T04:25:30.697Z,64.94
2023-03-26T04:30:35.443Z,65.33
2023-03-26T04:35:42.127Z,64.95
2023-03-26T04:40:48.001Z,64.75
2023-03-26T04:45:52.574Z,64.61
2023-03-26T04:50:55.663Z,64.43
2023-03-26T04:56:09.527Z,64.21
2023-03-26T05:01:12.564Z,63.59
2023-03-26T05:06:17.883Z,64.16
2023-03-26T05:11:21.228Z,64.17
2023-03-26T05:16:25.064Z,64.01
2023-03-26T05:21:27.941Z,63.79
2023-03-26T05:26:30.836Z,63.66
2023-03-26T05:31:33.741Z,63.59
2023-03-26T05:36:37.098Z,63.86
2023-03-26T05:41:39.960Z,63.18
2023-03-26T05:46:42.979Z,63.33
2023-03-26T05:51:46.588Z,62.74
2023-03-26T05:56:49.512Z,63.11
2023-03-26T06:01:54.785Z,62.90
2023-03-26T06:06:58.167Z,63.10
2023-03-26T06:12:01.093Z,63.20
2023-03-26T06:17:04.501Z,63.04
2023-03-26T06:22:07.398Z,62.28
2023-03-26T06:27:10.399Z,62.62
2023-03-26T06:32:19.621Z,62.48
2023-03-26T06:37:23.272Z,62.09
2023-03-26T06:43:06.394Z,61.43
2023-03-26T06:47:49.358Z,61.63
2023-03-26T06:52:56.564Z,60.03
2023-03-26T06:57:59.569Z,60.81
2023-03-26T07:03:04.885Z,64.79
2023-03-26T07:08:07.860Z,62.40
2023-03-26T07:13:11.191Z,61.16
2023-03-26T07:18:14.055Z,60.07
2023-03-26T07:23:20.913Z,59.82
2023-03-26T07:28:27.258Z,59.84
2023-03-26T07:34:04.266Z,64.47
2023-03-26T07:39:16.154Z,62.72
2023-03-26T07:44:41.161Z,61.32
2023-03-26T07:49:44.908Z,60.39
2023-03-26T07:54:48.219Z,60.01
2023-03-26T08:00:12.364Z,60.49
2023-03-26T08:05:26.488Z,63.59
2023-03-26T08:10:58.879Z,60.78
2023-03-26T08:16:19.634Z,61.79
2023-03-26T08:21:28.784Z,62.73
2023-03-26T08:26:35.448Z,60.25
2023-03-26T08:31:41.670Z,61.15
2023-03-26T08:36:44.840Z,58.86
2023-03-26T08:42:16.105Z,59.40
2023-03-26T08:47:41.444Z,62.58
2023-03-26T08:53:09.632Z,58.95
2023-03-26T08:58:31.171Z,60.94
2023-03-26T09:03:43.147Z,63.27
2023-03-26T09:09:05.654Z,60.18
2023-03-26T09:14:14.598Z,59.15
2023-03-26T09:19:50.580Z,61.01
2023-03-26T09:25:16.732Z,60.17
2023-03-26T09:30:28.453Z,63.50
2023-03-26T09:35:54.071Z,62.86
2023-03-26T09:41:13.062Z,60.66
2023-03-26T09:46:34.823Z,59.89
2023-03-26T09:51:54.656Z,64.98
2023-03-26T09:57:25.791Z,63.46
2023-03-26T10:02:45.422Z,59.45
2023-03-26T10:08:08.343Z,55.35
2023-03-26T10:13:21.702Z,51.22
2023-03-26T10:18:43.346Z,54.51
2023-03-26T10:24:20.140Z,59.50
2023-03-26T10:29:44.749Z,60.18
2023-03-26T10:35:06.392Z,56.94
2023-03-26T10:40:44.422Z,59.04
2023-03-26T10:46:04.290Z,59.55
2023-03-26T10:51:32.007Z,59.37
2023-03-26T10:56:46.110Z,61.41
2023-03-26T11:01:57.938Z,61.02
2023-03-26T11:07:25.988Z,53.79
2023-03-26T11:13:04.890Z,57.89
2023-03-26T11:18:23.908Z,61.42
2023-03-26T11:23:41.115Z,55.96
2023-03-26T11:29:31.481Z,53.03
2023-03-26T11:35:01.500Z,53.63
2023-03-26T11:40:30.125Z,56.77
2023-03-26T11:45:39.480Z,52.54
2023-03-26T11:50:47.300Z,52.98
2023-03-26T11:56:04.339Z,50.63
2023-03-26T12:01:16.991Z,43.32
2023-03-26T12:06:27.329Z,43.45
2023-03-26T12:11:35.528Z,44.35
2023-03-26T12:16:38.696Z,50.27
2023-03-26T12:21:52.361Z,56.43
2023-03-26T12:27:20.836Z,61.76
2023-03-26T12:32:32.545Z,64.63
2023-03-26T12:37:47.430Z,60.43
2023-03-26T12:44:54.605Z,58.63
2023-03-26T12:48:26.473Z,60.56
2023-03-26T12:53:48.477Z,61.97
2023-03-26T12:59:21.996Z,63.50
2023-03-26T13:04:43.610Z,58.49
2023-03-26T13:10:35.276Z,52.92
2023-03-26T13:15:47.416Z,51.51
2023-03-26T13:21:04.764Z,46.86
2023-03-26T13:26:34.084Z,41.31
2023-03-26T13:31:51.523Z,39.64
2023-03-26T13:37:04.437Z,41.53
2023-03-26T13:42:37.983Z,43.04
2023-03-26T13:47:49.227Z,45.60
2023-03-26T13:53:15.646Z,46.26
2023-03-26T13:58:24.491Z,47.49
2023-03-26T14:03:30.600Z,49.52
2023-03-26T14:08:39.819Z,51.34
2023-03-26T14:13:56.854Z,53.45
2023-03-26T14:19:09.891Z,55.09
2023-03-26T14:24:50.195Z,54.89
2023-03-26T14:30:05.043Z,55.71
2023-03-26T14:35:28.769Z,57.67
2023-03-26T14:41:10.880Z,59.95
2023-03-26T14:46:19.975Z,61.86
2023-03-26T14:51:47.108Z,62.00
2023-03-26T14:57:24.090Z,61.68
2023-03-26T15:03:02.388Z,61.86
2023-03-26T15:08:11.185Z,61.88
2023-03-26T15:13:50.641Z,61.57
2023-03-26T15:19:02.660Z,60.50
2023-03-26T15:24:43.145Z,60.20
2023-03-26T15:30:15.336Z,60.18
2023-03-26T15:35:18.252Z,57.10
2023-03-26T15:40:47.866Z,56.02
2023-03-26T15:46:22.155Z,57.08
2023-03-26T15:51:47.271Z,58.70
2023-03-26T15:57:17.315Z,60.21
2023-03-26T16:02:36.626Z,61.26
2023-03-26T16:07:48.016Z,65.93
2023-03-26T16:13:22.843Z,61.36
2023-03-26T16:18:39.181Z,52.93
2023-03-26T16:23:47.940Z,52.64
2023-03-26T16:28:53.036Z,54.11
2023-03-26T16:34:04.963Z,56.40
2023-03-26T16:39:08.674Z,58.02
2023-03-26T16:44:26.530Z,59.55
2023-03-26T16:49:47.248Z,65.22
2023-03-26T16:55:20.166Z,66.73
2023-03-26T17:00:31.494Z,62.66
2023-03-26T17:05:59.454Z,58.70
2023-03-26T17:11:24.371Z,55.89
2023-03-26T17:17:01.165Z,57.77
2023-03-26T17:22:28.857Z,60.14
2023-03-26T17:27:44.164Z,68.69
2023-03-26T17:32:56.110Z,64.28
2023-03-26T17:38:00.492Z,57.14
2023-03-26T17:43:09.557Z,60.87
2023-03-26T17:48:21.884Z,65.63
2023-03-26T17:53:31.607Z,63.78
2023-03-26T17:58:42.720Z,62.00
2023-03-26T18:03:50.362Z,61.38
2023-03-26T18:09:12.279Z,60.28
2023-03-26T18:14:47.579Z,56.52
2023-03-26T18:19:53.652Z,59.29
2023-03-26T18:25:01.710Z,65.43
2023-03-26T18:30:20.673Z,66.92
2023-03-26T18:35:24.850Z,63.71
2023-03-26T18:40:34.247Z,61.89
2023-03-26T18:45:39.752Z,60.49
2023-03-26T18:50:43.035Z,59.67
2023-03-26T18:55:46.541Z,57.44
2023-03-26T19:00:53.141Z,59.98
2023-03-26T19:05:58.241Z,67.53
2023-03-26T19:11:04.693Z,65.47
2023-03-26T19:16:17.544Z,59.94
2023-03-26T19:21:23.520Z,64.75
2023-03-26T19:26:26.904Z,62.35
2023-03-26T19:31:34.620Z,60.51
2023-03-26T19:37:01.200Z,59.80
2023-03-26T19:42:06.622Z,56.38
2023-03-26T19:47:26.803Z,58.30
2023-03-26T19:52:38.566Z,62.95
2023-03-26T19:57:41.474Z,65.33
2023-03-26T20:02:46.504Z,61.04
2023-03-26T20:07:50.774Z,55.57
2023-03-26T20:12:53.673Z,55.18
2023-03-26T20:17:56.602Z,59.31
2023-03-26T20:22:59.581Z,60.33
2023-03-26T20:28:03.102Z,65.96
2023-03-26T20:33:12.128Z,68.11
2023-03-26T20:38:18.214Z,63.51
2023-03-26T20:43:25.204Z,60.15
2023-03-26T20:48:28.020Z,54.54
2023-03-26T20:53:30.921Z,57.54
2023-03-26T20:58:33.754Z,60.30
2023-03-26T21:03:37.652Z,65.04
2023-03-26T21:08:44.726Z,62.69
2023-03-26T21:13:58.558Z,57.54
2023-03-26T21:19:03.154Z,54.03
2023-03-26T21:24:33.252Z,55.49
2023-03-26T21:29:37.433Z,56.61
2023-03-26T21:34:47.862Z,58.53
2023-03-26T21:40:00.002Z,60.56
2023-03-26T21:45:03.918Z,67.64
2023-03-26T21:50:08.536Z,66.62
2023-03-26T21:55:13.299Z,58.41
2023-03-26T22:00:18.830Z,55.08
2023-03-26T22:05:47.713Z,57.21
2023-03-26T22:10:50.543Z,58.56
2023-03-26T22:15:53.821Z,60.42
2023-03-26T22:20:59.250Z,61.58
2023-03-26T22:26:03.308Z,69.82
2023-03-26T22:31:08.998Z,67.33
2023-03-26T22:36:22.561Z,60.98
2023-03-26T22:41:26.711Z,53.89
2023-03-26T22:46:31.183Z,55.18
2023-03-26T22:51:34.252Z,57.15
2023-03-26T22:56:37.394Z,60.34
2023-03-26T23:01:40.378Z,68.31
2023-03-26T23:06:43.271Z,66.67
2023-03-26T23:11:46.301Z,60.33
2023-03-26T23:16:50.718Z,54.66
2023-03-26T23:21:53.624Z,57.12
2023-03-26T23:26:56.426Z,59.49
2023-03-26T23:32:00.445Z,60.15
2023-03-26T23:37:03.366Z,68.12
2023-03-26T23:42:06.281Z,67.27
2023-03-26T23:47:10.605Z,61.80
2023-03-26T23:52:13.923Z,57.89
2023-03-26T23:57:18.599Z,57.09
